sensor_id;sensor_type;location;lat;lon;timestamp;P1;durP1;ratioP1;P2;durP2;ratioP2
45940;SDS011;31858;46.008;8.978;2023-08-30T00:00:51;0.00;;;0.00;;
45940;SDS011;31858;46.008;8.978;2023-08-30T00:10:53;0.00;;;0.00;;
45940;SDS011;31858;46.008;8.978;2023-08-30T00:20:57;0.00;;;0.00;;
45940;SDS011;31858;46.008;8.978;2023-08-30T00:30:59;0.10;;;0.10;;
45940;SDS011;31858;46.008;8.978;2023-08-30T00:41:02;0.08;;;0.08;;
45940;SDS011;31858;46.008;8.978;2023-08-30T00:51:04;0.00;;;0.00;;
45940;SDS011;31858;46.008;8.978;2023-08-30T01:01:07;3.10;;;0.10;;
45940;SDS011;31858;46.008;8.978;2023-08-30T01:11:10;0.00;;;0.00;;
45940;SDS011;31858;46.008;8.978;2023-08-30T01:21:19;0.00;;;0.00;;
45940;SDS011;31858;46.008;8.978;2023-08-30T01:31:29;0.68;;;0.10;;
45940;SDS011;31858;46.008;8.978;2023-08-30T01:41:34;0.08;;;0.00;;
45940;SDS011;31858;46.008;8.978;2023-08-30T01:51:38;4.80;;;0.10;;
45940;SDS011;31858;46.008;8.978;2023-08-30T02:01:41;2.20;;;0.20;;
45940;SDS011;31858;46.008;8.978;2023-08-30T02:11:44;0.38;;;0.00;;
45940;SDS011;31858;46.008;8.978;2023-08-30T02:21:48;0.00;;;0.00;;
45940;SDS011;31858;46.008;8.978;2023-08-30T02:31:51;2.17;;;0.20;;
45940;SDS011;31858;46.008;8.978;2023-08-30T02:41:53;0.03;;;0.03;;
45940;SDS011;31858;46.008;8.978;2023-08-30T02:51:56;2.60;;;0.10;;
45940;SDS011;31858;46.008;8.978;2023-08-30T03:01:57;0.00;;;0.00;;
45940;SDS011;31858;46.008;8.978;2023-08-30T03:12:00;1.08;;;0.30;;
45940;SDS011;31858;46.008;8.978;2023-08-30T03:22:02;1.30;;;0.13;;
45940;SDS011;31858;46.008;8.978;2023-08-30T03:32:05;0.20;;;0.20;;
45940;SDS011;31858;46.008;8.978;2023-08-30T03:42:07;0.68;;;0.10;;
45940;SDS011;31858;46.008;8.978;2023-08-30T03:52:10;0.00;;;0.00;;
45940;SDS011;31858;46.008;8.978;2023-08-30T04:02:13;0.00;;;0.00;;
45940;SDS011;31858;46.008;8.978;2023-08-30T04:12:15;0.03;;;0.03;;
45940;SDS011;31858;46.008;8.978;2023-08-30T04:22:17;0.15;;;0.10;;
45940;SDS011;31858;46.008;8.978;2023-08-30T04:32:20;0.50;;;0.05;;
45940;SDS011;31858;46.008;8.978;2023-08-30T04:42:22;0.00;;;0.00;;
45940;SDS011;31858;46.008;8.978;2023-08-30T04:52:25;2.88;;;0.65;;
45940;SDS011;31858;46.008;8.978;2023-08-30T05:02:27;0.43;;;0.22;;
45940;SDS011;31858;46.008;8.978;2023-08-30T05:12:30;0.25;;;0.00;;
45940;SDS011;31858;46.008;8.978;2023-08-30T05:22:31;0.10;;;0.10;;
45940;SDS011;31858;46.008;8.978;2023-08-30T05:32:34;0.68;;;0.10;;
45940;SDS011;31858;46.008;8.978;2023-08-30T05:42:36;0.10;;;0.10;;
45940;SDS011;31858;46.008;8.978;2023-08-30T05:52:39;0.10;;;0.10;;
45940;SDS011;31858;46.008;8.978;2023-08-30T06:02:41;0.13;;;0.13;;
45940;SDS011;31858;46.008;8.978;2023-08-30T06:12:44;0.73;;;0.22;;
45940;SDS011;31858;46.008;8.978;2023-08-30T06:22:45;0.90;;;0.15;;
45940;SDS011;31858;46.008;8.978;2023-08-30T06:32:48;0.13;;;0.10;;
45940;SDS011;31858;46.008;8.978;2023-08-30T06:42:50;0.17;;;0.13;;
45940;SDS011;31858;46.008;8.978;2023-08-30T06:52:53;1.45;;;0.52;;
45940;SDS011;31858;46.008;8.978;2023-08-30T07:02:55;0.00;;;0.00;;
45940;SDS011;31858;46.008;8.978;2023-08-30T07:12:58;0.10;;;0.10;;
45940;SDS011;31858;46.008;8.978;2023-08-30T07:23:00;0.20;;;0.20;;
45940;SDS011;31858;46.008;8.978;2023-08-30T07:33:04;0.28;;;0.03;;
45940;SDS011;31858;46.008;8.978;2023-08-30T07:43:05;0.10;;;0.10;;
45940;SDS011;31858;46.008;8.978;2023-08-30T07:53:08;0.43;;;0.20;;
45940;SDS011;31858;46.008;8.978;2023-08-30T08:03:10;0.30;;;0.10;;
45940;SDS011;31858;46.008;8.978;2023-08-30T08:13:13;0.30;;;0.13;;
45940;SDS011;31858;46.008;8.978;2023-08-30T08:23:15;0.45;;;0.30;;
45940;SDS011;31858;46.008;8.978;2023-08-30T08:33:18;0.20;;;0.20;;
45940;SDS011;31858;46.008;8.978;2023-08-30T08:43:22;0.13;;;0.13;;
45940;SDS011;31858;46.008;8.978;2023-08-30T08:53:25;0.20;;;0.20;;
45940;SDS011;31858;46.008;8.978;2023-08-30T09:03:27;0.40;;;0.17;;
45940;SDS011;31858;46.008;8.978;2023-08-30T09:13:30;0.13;;;0.10;;
45940;SDS011;31858;46.008;8.978;2023-08-30T09:23:32;0.20;;;0.20;;
45940;SDS011;31858;46.008;8.978;2023-08-30T09:33:35;0.40;;;0.30;;
45940;SDS011;31858;46.008;8.978;2023-08-30T09:43:41;0.22;;;0.22;;
45940;SDS011;31858;46.008;8.978;2023-08-30T09:53:45;0.35;;;0.35;;
45940;SDS011;31858;46.008;8.978;2023-08-30T10:03:54;0.55;;;0.30;;
45940;SDS011;31858;46.008;8.978;2023-08-30T10:13:58;1.15;;;0.28;;
45940;SDS011;31858;46.008;8.978;2023-08-30T10:24:01;3.50;;;0.40;;
45940;SDS011;31858;46.008;8.978;2023-08-30T10:34:13;1.98;;;0.43;;
45940;SDS011;31858;46.008;8.978;2023-08-30T10:44:16;0.40;;;0.30;;
45940;SDS011;31858;46.008;8.978;2023-08-30T10:54:23;0.70;;;0.40;;
45940;SDS011;31858;46.008;8.978;2023-08-30T11:04:24;0.20;;;0.20;;
45940;SDS011;31858;46.008;8.978;2023-08-30T11:14:27;0.55;;;0.43;;
45940;SDS011;31858;46.008;8.978;2023-08-30T11:24:29;0.77;;;0.77;;
45940;SDS011;31858;46.008;8.978;2023-08-30T11:34:32;0.50;;;0.40;;
45940;SDS011;31858;46.008;8.978;2023-08-30T11:44:34;1.50;;;0.60;;
45940;SDS011;31858;46.008;8.978;2023-08-30T11:54:38;2.70;;;0.75;;
45940;SDS011;31858;46.008;8.978;2023-08-30T12:04:40;2.28;;;0.70;;
45940;SDS011;31858;46.008;8.978;2023-08-30T12:14:43;0.70;;;0.70;;
45940;SDS011;31858;46.008;8.978;2023-08-30T12:24:45;2.15;;;0.80;;
45940;SDS011;31858;46.008;8.978;2023-08-30T12:34:49;0.73;;;0.73;;
45940;SDS011;31858;46.008;8.978;2023-08-30T12:44:50;2.95;;;0.90;;
45940;SDS011;31858;46.008;8.978;2023-08-30T12:54:53;0.77;;;0.70;;
45940;SDS011;31858;46.008;8.978;2023-08-30T13:04:55;2.97;;;0.80;;
45940;SDS011;31858;46.008;8.978;2023-08-30T13:14:58;1.63;;;0.80;;
45940;SDS011;31858;46.008;8.978;2023-08-30T13:24:59;7.22;;;1.08;;
45940;SDS011;31858;46.008;8.978;2023-08-30T13:35:02;2.45;;;0.80;;
45940;SDS011;31858;46.008;8.978;2023-08-30T13:45:05;2.72;;;1.02;;
45940;SDS011;31858;46.008;8.978;2023-08-30T13:55:10;1.42;;;0.98;;
45940;SDS011;31858;46.008;8.978;2023-08-30T14:05:12;1.88;;;1.00;;
45940;SDS011;31858;46.008;8.978;2023-08-30T14:15:15;1.95;;;0.85;;
45940;SDS011;31858;46.008;8.978;2023-08-30T14:25:18;1.55;;;0.70;;
45940;SDS011;31858;46.008;8.978;2023-08-30T14:35:21;1.50;;;1.00;;
45940;SDS011;31858;46.008;8.978;2023-08-30T14:45:24;3.55;;;0.90;;
45940;SDS011;31858;46.008;8.978;2023-08-30T14:55:27;2.08;;;0.70;;
45940;SDS011;31858;46.008;8.978;2023-08-30T15:05:28;0.93;;;0.80;;
45940;SDS011;31858;46.008;8.978;2023-08-30T15:15:31;1.75;;;0.70;;
45940;SDS011;31858;46.008;8.978;2023-08-30T15:25:33;1.27;;;0.50;;
45940;SDS011;31858;46.008;8.978;2023-08-30T15:35:37;0.50;;;0.50;;
45940;SDS011;31858;46.008;8.978;2023-08-30T15:45:39;1.15;;;0.68;;
45940;SDS011;31858;46.008;8.978;2023-08-30T15:55:43;0.65;;;0.63;;
45940;SDS011;31858;46.008;8.978;2023-08-30T16:05:45;0.50;;;0.50;;
45940;SDS011;31858;46.008;8.978;2023-08-30T16:15:48;1.55;;;0.50;;
45940;SDS011;31858;46.008;8.978;2023-08-30T16:25:50;0.63;;;0.60;;
45940;SDS011;31858;46.008;8.978;2023-08-30T16:35:53;0.77;;;0.77;;
45940;SDS011;31858;46.008;8.978;2023-08-30T16:45:54;3.50;;;0.60;;
45940;SDS011;31858;46.008;8.978;2023-08-30T16:56:00;1.08;;;0.60;;
45940;SDS011;31858;46.008;8.978;2023-08-30T17:06:03;0.60;;;0.60;;
45940;SDS011;31858;46.008;8.978;2023-08-30T17:16:06;1.05;;;0.63;;
45940;SDS011;31858;46.008;8.978;2023-08-30T17:26:08;0.63;;;0.60;;
45940;SDS011;31858;46.008;8.978;2023-08-30T17:36:11;2.50;;;0.70;;
45940;SDS011;31858;46.008;8.978;2023-08-30T17:46:13;2.10;;;0.60;;
45940;SDS011;31858;46.008;8.978;2023-08-30T17:56:16;2.72;;;1.05;;
45940;SDS011;31858;46.008;8.978;2023-08-30T18:06:22;1.35;;;0.68;;
45940;SDS011;31858;46.008;8.978;2023-08-30T18:16:25;0.68;;;0.50;;
45940;SDS011;31858;46.008;8.978;2023-08-30T18:26:26;3.05;;;0.57;;
45940;SDS011;31858;46.008;8.978;2023-08-30T18:36:29;0.88;;;0.65;;
45940;SDS011;31858;46.008;8.978;2023-08-30T18:46:31;1.83;;;0.95;;
45940;SDS011;31858;46.008;8.978;2023-08-30T18:56:35;0.50;;;0.50;;
45940;SDS011;31858;46.008;8.978;2023-08-30T19:06:37;0.63;;;0.63;;
45940;SDS011;31858;46.008;8.978;2023-08-30T19:16:40;4.03;;;0.90;;
45940;SDS011;31858;46.008;8.978;2023-08-30T19:26:41;1.33;;;0.90;;
45940;SDS011;31858;46.008;8.978;2023-08-30T19:36:44;0.73;;;0.60;;
45940;SDS011;31858;46.008;8.978;2023-08-30T19:46:46;0.60;;;0.60;;
45940;SDS011;31858;46.008;8.978;2023-08-30T19:56:49;0.50;;;0.50;;
45940;SDS011;31858;46.008;8.978;2023-08-30T20:06:50;1.88;;;0.85;;
45940;SDS011;31858;46.008;8.978;2023-08-30T20:16:54;1.70;;;0.73;;
45940;SDS011;31858;46.008;8.978;2023-08-30T20:26:56;0.45;;;0.45;;
45940;SDS011;31858;46.008;8.978;2023-08-30T20:36:59;2.33;;;0.40;;
45940;SDS011;31858;46.008;8.978;2023-08-30T20:47:01;0.60;;;0.50;;
45940;SDS011;31858;46.008;8.978;2023-08-30T20:57:05;0.30;;;0.30;;
45940;SDS011;31858;46.008;8.978;2023-08-30T21:07:07;0.60;;;0.60;;
45940;SDS011;31858;46.008;8.978;2023-08-30T21:17:10;0.80;;;0.80;;
45940;SDS011;31858;46.008;8.978;2023-08-30T21:27:11;0.93;;;0.90;;
45940;SDS011;31858;46.008;8.978;2023-08-30T21:37:14;0.63;;;0.63;;
45940;SDS011;31858;46.008;8.978;2023-08-30T21:47:16;2.95;;;1.70;;
45940;SDS011;31858;46.008;8.978;2023-08-30T21:57:21;2.13;;;1.42;;
45940;SDS011;31858;46.008;8.978;2023-08-30T22:07:24;1.48;;;1.38;;
45940;SDS011;31858;46.008;8.978;2023-08-30T22:17:27;1.20;;;1.05;;
45940;SDS011;31858;46.008;8.978;2023-08-30T22:27:30;1.17;;;1.00;;
45940;SDS011;31858;46.008;8.978;2023-08-30T22:37:33;0.85;;;0.80;;
45940;SDS011;31858;46.008;8.978;2023-08-30T22:47:35;0.95;;;0.88;;
45940;SDS011;31858;46.008;8.978;2023-08-30T22:57:39;2.15;;;0.90;;
45940;SDS011;31858;46.008;8.978;2023-08-30T23:07:40;0.70;;;0.70;;
45940;SDS011;31858;46.008;8.978;2023-08-30T23:17:44;1.10;;;0.90;;
45940;SDS011;31858;46.008;8.978;2023-08-30T23:27:46;2.17;;;1.00;;
45940;SDS011;31858;46.008;8.978;2023-08-30T23:37:49;1.02;;;0.90;;
45940;SDS011;31858;46.008;8.978;2023-08-30T23:47:51;4.85;;;1.10;;
45940;SDS011;31858;46.008;8.978;2023-08-30T23:57:54;2.35;;;1.20;;
